<?xml version="1.0" encoding="UTF-8" standalone="no" ?>
<gpx xmlns="http://www.topografix.com/GPX/1/1" xmlns:xsi="http://www.w3.org/2001/XMLSchema-instance" xsi:schemaLocation="http://www.topografix.com/GPX/1/1 http://www.topografix.com/GPX/1/1/gpx.xsd" version="1.1" creator="VisuGPX - https://www.visugpx.com">
  <metadata>
    <name>5_km_rando</name>
  </metadata>
  <trk>
    <name><![CDATA[5 km-22691543]]></name>
    <extensions>
      <line xmlns="http://www.topografix.com/GPX/gpx_style/0/2">
        <color>0000FF</color>
        <width>4</width>
      </line>
    </extensions>
    <trkseg>
      <trkpt lat="45.99873" lon="4.17624">
        <ele>436</ele>
        <time>2026-02-01T12:04:56Z</time>
      </trkpt>
      <trkpt lat="45.99907" lon="4.17643">
        <ele>435</ele>
        <time>2026-02-01T12:05:45Z</time>
      </trkpt>
      <trkpt lat="45.99924" lon="4.17643">
        <ele>436</ele>
        <time>2026-02-01T12:06:07Z</time>
      </trkpt>
      <trkpt lat="45.99943" lon="4.17641">
        <ele>436</ele>
        <time>2026-02-01T12:06:33Z</time>
      </trkpt>
      <trkpt lat="45.99979" lon="4.17629">
        <ele>438</ele>
        <time>2026-02-01T12:07:22Z</time>
      </trkpt>
      <trkpt lat="46.00002" lon="4.17629">
        <ele>439</ele>
        <time>2026-02-01T12:07:53Z</time>
      </trkpt>
      <trkpt lat="46.00057" lon="4.17612">
        <ele>439</ele>
        <time>2026-02-01T12:09:08Z</time>
      </trkpt>
      <trkpt lat="46.00081" lon="4.17609">
        <ele>440</ele>
        <time>2026-02-01T12:09:40Z</time>
      </trkpt>
      <trkpt lat="46.00098" lon="4.17609">
        <ele>440</ele>
        <time>2026-02-01T12:10:03Z</time>
      </trkpt>
      <trkpt lat="46.0012" lon="4.17608">
        <ele>440</ele>
        <time>2026-02-01T12:10:32Z</time>
      </trkpt>
      <trkpt lat="46.00159" lon="4.17612">
        <ele>441</ele>
        <time>2026-02-01T12:11:24Z</time>
      </trkpt>
      <trkpt lat="46.00188" lon="4.17618">
        <ele>442</ele>
        <time>2026-02-01T12:12:03Z</time>
      </trkpt>
      <trkpt lat="46.00265" lon="4.17638">
        <ele>443</ele>
        <time>2026-02-01T12:13:48Z</time>
      </trkpt>
      <trkpt lat="46.00309" lon="4.17644">
        <ele>443</ele>
        <time>2026-02-01T12:14:47Z</time>
      </trkpt>
      <trkpt lat="46.00479" lon="4.17644">
        <ele>445</ele>
        <time>2026-02-01T12:18:34Z</time>
      </trkpt>
      <trkpt lat="46.00532" lon="4.17649">
        <ele>445</ele>
        <time>2026-02-01T12:19:44Z</time>
      </trkpt>
      <trkpt lat="46.00568" lon="4.1765">
        <ele>445</ele>
        <time>2026-02-01T12:20:33Z</time>
      </trkpt>
      <trkpt lat="46.00595" lon="4.17646">
        <ele>445</ele>
        <time>2026-02-01T12:21:09Z</time>
      </trkpt>
      <trkpt lat="46.00615" lon="4.17641">
        <ele>445</ele>
        <time>2026-02-01T12:21:36Z</time>
      </trkpt>
      <trkpt lat="46.00655" lon="4.17625">
        <ele>443</ele>
        <time>2026-02-01T12:22:31Z</time>
      </trkpt>
      <trkpt lat="46.00696" lon="4.17611">
        <ele>442</ele>
        <time>2026-02-01T12:23:27Z</time>
      </trkpt>
      <trkpt lat="46.00723" lon="4.17609">
        <ele>441</ele>
        <time>2026-02-01T12:24:04Z</time>
      </trkpt>
      <trkpt lat="46.0073" lon="4.17609">
        <ele>441</ele>
        <time>2026-02-01T12:24:13Z</time>
      </trkpt>
      <trkpt lat="46.00746" lon="4.17609">
        <ele>441</ele>
        <time>2026-02-01T12:24:34Z</time>
      </trkpt>
      <trkpt lat="46.00768" lon="4.17615">
        <ele>441</ele>
        <time>2026-02-01T12:25:04Z</time>
      </trkpt>
      <trkpt lat="46.00842" lon="4.17661">
        <ele>440</ele>
        <time>2026-02-01T12:26:52Z</time>
      </trkpt>
      <trkpt lat="46.0086" lon="4.1767">
        <ele>440</ele>
        <time>2026-02-01T12:27:17Z</time>
      </trkpt>
      <trkpt lat="46.00866" lon="4.17678">
        <ele>440</ele>
        <time>2026-02-01T12:27:28Z</time>
      </trkpt>
      <trkpt lat="46.0087" lon="4.17683">
        <ele>440</ele>
        <time>2026-02-01T12:27:35Z</time>
      </trkpt>
      <trkpt lat="46.00887" lon="4.17726">
        <ele>442</ele>
        <time>2026-02-01T12:28:21Z</time>
      </trkpt>
      <trkpt lat="46.00905" lon="4.17767">
        <ele>443</ele>
        <time>2026-02-01T12:29:06Z</time>
      </trkpt>
      <trkpt lat="46.00937" lon="4.17817">
        <ele>445</ele>
        <time>2026-02-01T12:30:09Z</time>
      </trkpt>
      <trkpt lat="46.00956" lon="4.17837">
        <ele>445</ele>
        <time>2026-02-01T12:30:40Z</time>
      </trkpt>
      <trkpt lat="46.00972" lon="4.17847">
        <ele>445</ele>
        <time>2026-02-01T12:31:04Z</time>
      </trkpt>
      <trkpt lat="46.00997" lon="4.17849">
        <ele>445</ele>
        <time>2026-02-01T12:31:37Z</time>
      </trkpt>
      <trkpt lat="46.01029" lon="4.17844">
        <ele>446</ele>
        <time>2026-02-01T12:32:20Z</time>
      </trkpt>
      <trkpt lat="46.01121" lon="4.17851">
        <ele>446</ele>
        <time>2026-02-01T12:34:23Z</time>
      </trkpt>
      <trkpt lat="46.01177" lon="4.17866">
        <ele>446</ele>
        <time>2026-02-01T12:35:39Z</time>
      </trkpt>
      <trkpt lat="46.01215" lon="4.1788">
        <ele>445</ele>
        <time>2026-02-01T12:36:31Z</time>
      </trkpt>
      <trkpt lat="46.01238" lon="4.17889">
        <ele>445</ele>
        <time>2026-02-01T12:37:03Z</time>
      </trkpt>
      <trkpt lat="46.0126" lon="4.17904">
        <ele>445</ele>
        <time>2026-02-01T12:37:36Z</time>
      </trkpt>
      <trkpt lat="46.01264" lon="4.17907">
        <ele>445</ele>
        <time>2026-02-01T12:37:42Z</time>
      </trkpt>
      <trkpt lat="46.01282" lon="4.17845">
        <ele>443</ele>
        <time>2026-02-01T12:38:44Z</time>
      </trkpt>
      <trkpt lat="46.01298" lon="4.17775">
        <ele>442</ele>
        <time>2026-02-01T12:39:52Z</time>
      </trkpt>
      <trkpt lat="46.01322" lon="4.17708">
        <ele>440</ele>
        <time>2026-02-01T12:41:02Z</time>
      </trkpt>
      <trkpt lat="46.0134" lon="4.1766">
        <ele>439</ele>
        <time>2026-02-01T12:41:53Z</time>
      </trkpt>
      <trkpt lat="46.01357" lon="4.1761">
        <ele>437</ele>
        <time>2026-02-01T12:42:44Z</time>
      </trkpt>
      <trkpt lat="46.01444" lon="4.17238">
        <ele>428</ele>
        <time>2026-02-01T12:48:48Z</time>
      </trkpt>
      <trkpt lat="46.01406" lon="4.17221">
        <ele>428</ele>
        <time>2026-02-01T12:49:41Z</time>
      </trkpt>
      <trkpt lat="46.01383" lon="4.17195">
        <ele>428</ele>
        <time>2026-02-01T12:50:20Z</time>
      </trkpt>
      <trkpt lat="46.01348" lon="4.17169">
        <ele>428</ele>
        <time>2026-02-01T12:51:13Z</time>
      </trkpt>
      <trkpt lat="46.01333" lon="4.17162">
        <ele>429</ele>
        <time>2026-02-01T12:51:34Z</time>
      </trkpt>
      <trkpt lat="46.01328" lon="4.17162">
        <ele>429</ele>
        <time>2026-02-01T12:51:40Z</time>
      </trkpt>
      <trkpt lat="46.01322" lon="4.17087">
        <ele>428</ele>
        <time>2026-02-01T12:52:50Z</time>
      </trkpt>
      <trkpt lat="46.01322" lon="4.17049">
        <ele>427</ele>
        <time>2026-02-01T12:53:26Z</time>
      </trkpt>
      <trkpt lat="46.01333" lon="4.1695">
        <ele>425</ele>
        <time>2026-02-01T12:54:58Z</time>
      </trkpt>
      <trkpt lat="46.01342" lon="4.1693">
        <ele>424</ele>
        <time>2026-02-01T12:55:21Z</time>
      </trkpt>
      <trkpt lat="46.01352" lon="4.1692">
        <ele>423</ele>
        <time>2026-02-01T12:55:37Z</time>
      </trkpt>
      <trkpt lat="46.01376" lon="4.16904">
        <ele>422</ele>
        <time>2026-02-01T12:56:12Z</time>
      </trkpt>
      <trkpt lat="46.01396" lon="4.1687">
        <ele>421</ele>
        <time>2026-02-01T12:56:53Z</time>
      </trkpt>
      <trkpt lat="46.01403" lon="4.16857">
        <ele>421</ele>
        <time>2026-02-01T12:57:09Z</time>
      </trkpt>
      <trkpt lat="46.01375" lon="4.16903">
        <ele>422</ele>
        <time>2026-02-01T12:58:05Z</time>
      </trkpt>
      <trkpt lat="46.01324" lon="4.16951">
        <ele>425</ele>
        <time>2026-02-01T12:59:27Z</time>
      </trkpt>
      <trkpt lat="46.01227" lon="4.16958">
        <ele>424</ele>
        <time>2026-02-01T13:01:36Z</time>
      </trkpt>
      <trkpt lat="46.01169" lon="4.1696">
        <ele>420</ele>
        <time>2026-02-01T13:02:54Z</time>
      </trkpt>
      <trkpt lat="46.0113" lon="4.16944">
        <ele>417</ele>
        <time>2026-02-01T13:03:48Z</time>
      </trkpt>
      <trkpt lat="46.01085" lon="4.16938">
        <ele>415</ele>
        <time>2026-02-01T13:04:48Z</time>
      </trkpt>
      <trkpt lat="46.01049" lon="4.16976">
        <ele>418</ele>
        <time>2026-02-01T13:05:48Z</time>
      </trkpt>
      <trkpt lat="46.00897" lon="4.16941">
        <ele>429</ele>
        <time>2026-02-01T13:09:13Z</time>
      </trkpt>
      <trkpt lat="46.00876" lon="4.17041">
        <ele>430</ele>
        <time>2026-02-01T13:10:50Z</time>
      </trkpt>
      <trkpt lat="46.00704" lon="4.17038">
        <ele>433</ele>
        <time>2026-02-01T13:14:39Z</time>
      </trkpt>
      <trkpt lat="46.00588" lon="4.17016">
        <ele>434</ele>
        <time>2026-02-01T13:17:16Z</time>
      </trkpt>
      <trkpt lat="46.00476" lon="4.17007">
        <ele>435</ele>
        <time>2026-02-01T13:19:45Z</time>
      </trkpt>
      <trkpt lat="46.00371" lon="4.16998">
        <ele>434</ele>
        <time>2026-02-01T13:22:06Z</time>
      </trkpt>
      <trkpt lat="46.00315" lon="4.16987">
        <ele>433</ele>
        <time>2026-02-01T13:23:21Z</time>
      </trkpt>
      <trkpt lat="46.00308" lon="4.17027">
        <ele>433</ele>
        <time>2026-02-01T13:23:59Z</time>
      </trkpt>
      <trkpt lat="46.00229" lon="4.1702">
        <ele>429</ele>
        <time>2026-02-01T13:25:45Z</time>
      </trkpt>
      <trkpt lat="46.00088" lon="4.16937">
        <ele>418</ele>
        <time>2026-02-01T13:29:08Z</time>
      </trkpt>
      <trkpt lat="46.00079" lon="4.16934">
        <ele>417</ele>
        <time>2026-02-01T13:29:20Z</time>
      </trkpt>
      <trkpt lat="46.00008" lon="4.16892">
        <ele>409</ele>
        <time>2026-02-01T13:31:03Z</time>
      </trkpt>
      <trkpt lat="45.9997" lon="4.16872">
        <ele>408</ele>
        <time>2026-02-01T13:31:57Z</time>
      </trkpt>
      <trkpt lat="45.99947" lon="4.16866">
        <ele>407</ele>
        <time>2026-02-01T13:32:28Z</time>
      </trkpt>
      <trkpt lat="45.9993" lon="4.16865">
        <ele>406</ele>
        <time>2026-02-01T13:32:51Z</time>
      </trkpt>
      <trkpt lat="45.99918" lon="4.16866">
        <ele>406</ele>
        <time>2026-02-01T13:33:07Z</time>
      </trkpt>
      <trkpt lat="45.99894" lon="4.16872">
        <ele>407</ele>
        <time>2026-02-01T13:33:39Z</time>
      </trkpt>
      <trkpt lat="45.99888" lon="4.16872">
        <ele>408</ele>
        <time>2026-02-01T13:33:47Z</time>
      </trkpt>
      <trkpt lat="45.99871" lon="4.16848">
        <ele>408</ele>
        <time>2026-02-01T13:34:19Z</time>
      </trkpt>
      <trkpt lat="45.99855" lon="4.16832">
        <ele>409</ele>
        <time>2026-02-01T13:34:45Z</time>
      </trkpt>
      <trkpt lat="45.99844" lon="4.16825">
        <ele>409</ele>
        <time>2026-02-01T13:35:01Z</time>
      </trkpt>
      <trkpt lat="45.99811" lon="4.16818">
        <ele>410</ele>
        <time>2026-02-01T13:35:46Z</time>
      </trkpt>
      <trkpt lat="45.99773" lon="4.16807">
        <ele>412</ele>
        <time>2026-02-01T13:36:37Z</time>
      </trkpt>
      <trkpt lat="45.99751" lon="4.16803">
        <ele>414</ele>
        <time>2026-02-01T13:37:07Z</time>
      </trkpt>
      <trkpt lat="45.99734" lon="4.16804">
        <ele>415</ele>
        <time>2026-02-01T13:37:30Z</time>
      </trkpt>
      <trkpt lat="45.9972" lon="4.1681">
        <ele>416</ele>
        <time>2026-02-01T13:37:49Z</time>
      </trkpt>
      <trkpt lat="45.99708" lon="4.16822">
        <ele>417</ele>
        <time>2026-02-01T13:38:09Z</time>
      </trkpt>
      <trkpt lat="45.99657" lon="4.16884">
        <ele>424</ele>
        <time>2026-02-01T13:39:38Z</time>
      </trkpt>
      <trkpt lat="45.99631" lon="4.16905">
        <ele>425</ele>
        <time>2026-02-01T13:40:18Z</time>
      </trkpt>
      <trkpt lat="45.99628" lon="4.16948">
        <ele>426</ele>
        <time>2026-02-01T13:40:58Z</time>
      </trkpt>
      <trkpt lat="45.99614" lon="4.17046">
        <ele>427</ele>
        <time>2026-02-01T13:42:30Z</time>
      </trkpt>
      <trkpt lat="45.99627" lon="4.17082">
        <ele>428</ele>
        <time>2026-02-01T13:43:08Z</time>
      </trkpt>
      <trkpt lat="45.99648" lon="4.17137">
        <ele>429</ele>
        <time>2026-02-01T13:44:06Z</time>
      </trkpt>
      <trkpt lat="45.99656" lon="4.17188">
        <ele>429</ele>
        <time>2026-02-01T13:44:55Z</time>
      </trkpt>
      <trkpt lat="45.99664" lon="4.17206">
        <ele>430</ele>
        <time>2026-02-01T13:45:14Z</time>
      </trkpt>
      <trkpt lat="45.99668" lon="4.1722">
        <ele>430</ele>
        <time>2026-02-01T13:45:28Z</time>
      </trkpt>
      <trkpt lat="45.9967" lon="4.17227">
        <ele>430</ele>
        <time>2026-02-01T13:45:36Z</time>
      </trkpt>
      <trkpt lat="45.99672" lon="4.17241">
        <ele>430</ele>
        <time>2026-02-01T13:45:49Z</time>
      </trkpt>
      <trkpt lat="45.99674" lon="4.17274">
        <ele>431</ele>
        <time>2026-02-01T13:46:19Z</time>
      </trkpt>
      <trkpt lat="45.99674" lon="4.17334">
        <ele>432</ele>
        <time>2026-02-01T13:47:15Z</time>
      </trkpt>
      <trkpt lat="45.99676" lon="4.17344">
        <ele>432</ele>
        <time>2026-02-01T13:47:25Z</time>
      </trkpt>
      <trkpt lat="45.99688" lon="4.17363">
        <ele>432</ele>
        <time>2026-02-01T13:47:49Z</time>
      </trkpt>
      <trkpt lat="45.99701" lon="4.17378">
        <ele>432</ele>
        <time>2026-02-01T13:48:11Z</time>
      </trkpt>
      <trkpt lat="45.99748" lon="4.17414">
        <ele>432</ele>
        <time>2026-02-01T13:49:22Z</time>
      </trkpt>
      <trkpt lat="45.99796" lon="4.17466">
        <ele>432</ele>
        <time>2026-02-01T13:50:42Z</time>
      </trkpt>
      <trkpt lat="45.99799" lon="4.17492">
        <ele>433</ele>
        <time>2026-02-01T13:51:06Z</time>
      </trkpt>
      <trkpt lat="45.99805" lon="4.1751">
        <ele>433</ele>
        <time>2026-02-01T13:51:25Z</time>
      </trkpt>
      <trkpt lat="45.99815" lon="4.17544">
        <ele>435</ele>
        <time>2026-02-01T13:51:59Z</time>
      </trkpt>
      <trkpt lat="45.99824" lon="4.1759">
        <ele>436</ele>
        <time>2026-02-01T13:52:43Z</time>
      </trkpt>
      <trkpt lat="45.9985" lon="4.1761">
        <ele>436</ele>
        <time>2026-02-01T13:53:23Z</time>
      </trkpt>
      <trkpt lat="45.99865" lon="4.17619">
        <ele>436</ele>
        <time>2026-02-01T13:53:44Z</time>
      </trkpt>
      <trkpt lat="45.99873" lon="4.17624">
        <ele>436</ele>
        <time>2026-02-01T13:53:56Z</time>
      </trkpt>
    </trkseg>
  </trk>
</gpx>